createdAt,value
2019-04-22T14:49:23.702Z,405
2019-04-22T14:49:36.288Z,815.625
2019-04-22T14:49:47.079Z,810
2019-04-22T14:49:58.819Z,810
2019-04-22T14:50:11.784Z,810
2019-04-22T14:50:21.659Z,804.375
2019-04-22T14:50:34.965Z,804.375
2019-04-22T14:50:45.058Z,810
2019-04-22T14:51:00.223Z,821.25
2019-04-22T14:51:11.053Z,838.125
2019-04-22T14:51:20.345Z,843.75
2019-04-22T14:51:36.964Z,849.375
2019-04-22T14:51:54.663Z,855
2019-04-22T14:52:11.256Z,855
2019-04-22T14:52:20.945Z,838.125
2019-04-22T14:52:32.745Z,838.125
2019-04-22T14:52:45.605Z,838.125
2019-04-22T14:52:57.843Z,832.5
2019-04-22T14:53:07.716Z,826.875
2019-04-22T14:53:20.569Z,826.875
2019-04-22T14:53:34.709Z,832.5
2019-04-22T14:53:44.419Z,843.75
2019-04-22T14:53:55.020Z,843.75
2019-04-22T14:54:09.589Z,855
2019-04-22T14:54:18.047Z,860.625
2019-04-22T14:54:30.833Z,877.5
2019-04-22T14:54:41.155Z,866.25
2019-04-22T14:54:53.975Z,877.5
2019-04-22T14:55:05.572Z,866.25
2019-04-22T14:55:15.500Z,860.625
2019-04-22T14:55:25.815Z,855
2019-04-22T14:55:37.820Z,855
2019-04-22T14:55:48.537Z,860.625
2019-04-22T14:56:00.240Z,855
2019-04-22T14:56:12.666Z,855
2019-04-22T14:56:24.225Z,860.625
2019-04-22T14:56:36.111Z,860.625
2019-04-22T14:56:48.497Z,866.25
2019-04-22T14:56:59.302Z,866.25
2019-04-22T14:57:11.131Z,871.875
2019-04-22T14:57:26.520Z,877.5
2019-04-22T14:57:38.239Z,883.125
2019-04-22T14:57:50.853Z,894.375
2019-04-22T14:58:02.265Z,900
2019-04-22T14:58:15.074Z,905.625
2019-04-22T14:58:26.931Z,905.625
2019-04-22T14:58:38.683Z,916.875
2019-04-22T14:58:50.875Z,905.625
2019-04-22T14:59:02.926Z,900
2019-04-22T14:59:14.124Z,894.375
2019-04-22T14:59:26.967Z,888.75
2019-04-22T14:59:39.886Z,888.75
2019-04-22T14:59:51.513Z,888.75
2019-04-22T15:00:04.265Z,900
2019-04-22T15:00:15.817Z,894.375
2019-04-22T15:00:27.091Z,900
2019-04-22T15:00:39.983Z,900
2019-04-22T15:00:53.269Z,900
2019-04-22T15:01:04.470Z,900
2019-04-22T15:01:16.999Z,928.125
2019-04-22T15:01:28.757Z,945
2019-04-22T15:01:41.487Z,950.625
2019-04-22T15:01:54.070Z,956.25
2019-04-22T15:02:05.683Z,956.25
2019-04-22T15:02:17.332Z,950.625
2019-04-22T15:02:29.739Z,939.375
2019-04-22T15:02:41.762Z,922.5
2019-04-22T15:02:52.770Z,911.25
2019-04-22T15:03:05.845Z,900
2019-04-22T15:03:17.659Z,888.75
2019-04-22T15:03:29.191Z,888.75
2019-04-22T15:03:43.976Z,894.375
2019-04-22T15:03:54.508Z,894.375
2019-04-22T15:04:05.626Z,894.375
2019-04-22T15:04:19.377Z,894.375
2019-04-22T15:04:31.027Z,888.75
2019-04-22T15:04:42.992Z,894.375
2019-04-22T15:04:54.202Z,911.25
2019-04-22T15:05:06.004Z,905.625
2019-04-22T15:05:18.565Z,922.5
2019-04-22T15:05:30.248Z,933.75
2019-04-22T15:05:41.965Z,950.625
2019-04-22T15:05:54.474Z,961.875
2019-04-22T15:06:06.323Z,961.875
2019-04-22T15:06:18.139Z,956.25
2019-04-22T15:06:31.482Z,950.625
2019-04-22T15:06:43.529Z,945
2019-04-22T15:06:54.790Z,933.75
2019-04-22T15:07:07.299Z,922.5
2019-04-22T15:07:19.176Z,916.875
2019-04-22T15:07:30.786Z,911.25
2019-04-22T15:07:43.187Z,905.625
2019-04-22T15:07:55.025Z,911.25
2019-04-22T15:08:07.110Z,911.25
2019-04-22T15:08:19.152Z,916.875
2019-04-22T15:08:31.067Z,922.5
2019-04-22T15:08:42.694Z,922.5
2019-04-22T15:08:57.145Z,922.5
2019-04-22T15:09:08.019Z,933.75
2019-04-22T15:09:19.749Z,928.125
2019-04-22T15:09:32.170Z,928.125
2019-04-22T15:09:43.936Z,928.125
2019-04-22T15:09:56.000Z,933.75
2019-04-22T15:10:08.231Z,933.75
2019-04-22T15:10:20.152Z,945
2019-04-22T15:10:31.830Z,939.375
2019-04-22T15:10:44.043Z,939.375
2019-04-22T15:10:55.827Z,939.375
2019-04-22T15:11:08.717Z,933.75
2019-04-22T15:11:21.260Z,933.75
2019-04-22T15:11:43.315Z,939.375
2019-04-22T15:11:55.627Z,933.75
2019-04-22T15:12:08.657Z,945
2019-04-22T15:12:17.970Z,945
2019-04-22T15:12:30.791Z,950.625
2019-04-22T15:12:43.838Z,950.625
2019-04-22T15:12:51.638Z,961.875
2019-04-22T15:13:03.040Z,961.875
2019-04-22T15:13:15.558Z,956.25
2019-04-22T15:13:27.333Z,950.625
2019-04-22T15:13:39.072Z,945
2019-04-22T15:13:51.595Z,939.375
2019-04-22T15:14:03.354Z,933.75
2019-04-22T15:14:15.254Z,939.375
2019-04-22T15:14:27.637Z,945
2019-04-22T15:14:39.649Z,961.875
2019-04-22T15:14:51.459Z,978.75
2019-04-22T15:15:03.817Z,990
2019-04-22T15:15:15.520Z,995.625
2019-04-22T15:15:27.204Z,1001.25
2019-04-22T15:15:43.982Z,995.625
2019-04-22T15:15:53.339Z,984.375
2019-04-22T15:16:05.659Z,973.125
2019-04-22T15:16:18.162Z,933.75
2019-04-22T15:16:29.982Z,939.375
2019-04-22T15:16:42.577Z,933.75
2019-04-22T15:16:55.128Z,933.75
2019-04-22T15:17:06.871Z,945
2019-04-22T15:17:18.663Z,956.25
2019-04-22T15:17:31.309Z,967.5
2019-04-22T15:17:42.934Z,984.375
2019-04-22T15:17:54.657Z,990
2019-04-22T15:18:07.880Z,995.625
2019-04-22T15:18:19.824Z,995.625
2019-04-22T15:18:31.621Z,995.625
2019-04-22T15:18:44.047Z,990
2019-04-22T15:18:55.807Z,973.125
2019-04-22T15:19:07.677Z,961.875
2019-04-22T15:19:20.078Z,950.625
2019-04-22T15:19:31.744Z,933.75
2019-04-22T15:19:43.493Z,933.75
2019-04-22T15:19:55.958Z,933.75
2019-04-22T15:20:07.861Z,933.75
2019-04-22T15:20:19.653Z,933.75
2019-04-22T15:20:31.848Z,950.625
2019-04-22T15:20:43.753Z,950.625
2019-04-22T15:20:56.518Z,967.5
2019-04-22T15:21:08.930Z,984.375
2019-04-22T15:21:20.651Z,984.375
2019-04-22T15:21:32.496Z,984.375
2019-04-22T15:21:45.080Z,990
2019-04-22T15:21:56.768Z,995.625
2019-04-22T15:22:08.648Z,990
2019-04-22T15:22:20.875Z,995.625
2019-04-22T15:22:32.695Z,1001.25
2019-04-22T15:22:44.371Z,990
2019-04-22T15:22:56.677Z,990
2019-04-22T15:23:08.720Z,990
2019-04-22T15:23:20.551Z,973.125
2019-04-22T15:23:32.888Z,961.875
2019-04-22T15:23:44.510Z,945
2019-04-22T15:23:56.354Z,933.75
2019-04-22T15:24:08.718Z,928.125
2019-04-22T15:24:20.565Z,933.75
2019-04-22T15:24:32.403Z,933.75
2019-04-22T15:24:45.014Z,945
2019-04-22T15:24:56.658Z,956.25
2019-04-22T15:25:08.290Z,978.75
2019-04-22T15:25:20.670Z,978.75
2019-04-22T15:25:32.602Z,990
2019-04-22T15:25:44.292Z,995.625
2019-04-22T15:25:56.769Z,1012.5
2019-04-22T15:26:08.512Z,1012.5
2019-04-22T15:26:20.316Z,1012.5
2019-04-22T15:26:32.719Z,1006.875
2019-04-22T15:26:44.577Z,1006.875
2019-04-22T15:26:56.378Z,1001.25
2019-04-22T15:27:08.734Z,995.625
2019-04-22T15:27:20.302Z,990
2019-04-22T15:27:33.063Z,995.625
2019-04-22T15:27:45.780Z,1001.25
2019-04-22T15:27:57.456Z,995.625
2019-04-22T15:28:09.215Z,995.625
2019-04-22T15:28:21.674Z,984.375
2019-04-22T15:28:33.352Z,978.75
2019-04-22T15:28:45.137Z,984.375
2019-04-22T15:28:57.431Z,978.75
2019-04-22T15:29:09.305Z,973.125
2019-04-22T15:29:21.152Z,973.125
2019-04-22T15:29:33.588Z,973.125
2019-04-22T15:29:45.134Z,978.75
2019-04-22T15:29:57.041Z,990
2019-04-22T15:30:09.580Z,990
2019-04-22T15:30:21.401Z,995.625
2019-04-22T15:30:33.155Z,1001.25
2019-04-22T15:30:45.675Z,1006.875
2019-04-22T15:30:57.573Z,1012.5
2019-04-22T15:31:09.346Z,1012.5
2019-04-22T15:31:21.625Z,1012.5
2019-04-22T15:31:33.239Z,1006.875
2019-04-22T15:31:45.067Z,1001.25
2019-04-22T15:31:57.634Z,1012.5
2019-04-22T15:32:09.427Z,1001.25
2019-04-22T15:32:21.285Z,1001.25
2019-04-22T15:32:33.511Z,1006.875
2019-04-22T15:32:45.500Z,1012.5
2019-04-22T15:32:57.187Z,1018.125
2019-04-22T15:33:09.628Z,1023.75
2019-04-22T15:33:21.435Z,1035
2019-04-22T15:33:33.212Z,1046.25
2019-04-22T15:33:48.111Z,1051.875
2019-04-22T15:33:58.378Z,1051.875
2019-04-22T15:34:10.225Z,1051.875
2019-04-22T15:34:22.344Z,1046.25
2019-04-22T15:34:34.594Z,1040.625
2019-04-22T15:34:46.938Z,1040.625
2019-04-22T15:34:59.558Z,1023.75
2019-04-22T15:35:11.544Z,1012.5
2019-04-22T15:35:23.325Z,1012.5
2019-04-22T15:35:35.472Z,1012.5
2019-04-22T15:35:47.263Z,1012.5
2019-04-22T15:35:59.065Z,1023.75
2019-04-22T15:36:11.968Z,1035
2019-04-22T15:36:24.089Z,1035
2019-04-22T15:36:35.861Z,1046.25
2019-04-22T15:36:48.219Z,1051.875
2019-04-22T15:37:00.149Z,1057.5
2019-04-22T15:37:11.923Z,1051.875
2019-04-22T15:37:24.323Z,1051.875
2019-04-22T15:37:37.223Z,1051.875
2019-04-22T15:37:49.062Z,1046.25
2019-04-22T15:38:01.477Z,1040.625
2019-04-22T15:38:15.354Z,1046.25
2019-04-22T15:38:28.064Z,1046.25
2019-04-22T15:38:40.470Z,1040.625
2019-04-22T15:38:51.354Z,1040.625
2019-04-22T15:39:03.047Z,1040.625
2019-04-22T15:39:15.525Z,1035
2019-04-22T15:39:29.123Z,1029.375
2019-04-22T15:39:41.499Z,1035
2019-04-22T15:39:56.297Z,1023.75
2019-04-22T15:40:06.833Z,1018.125
2019-04-22T15:40:18.476Z,1006.875
2019-04-22T15:40:30.693Z,1006.875
2019-04-22T15:40:42.714Z,1001.25
2019-04-22T15:40:54.501Z,1006.875
2019-04-22T15:41:06.924Z,1006.875
2019-04-22T15:41:18.758Z,1012.5
2019-04-22T15:41:30.526Z,1023.75
2019-04-22T15:41:55.478Z,1029.375
2019-04-22T15:42:00.222Z,1023.75
2019-04-22T15:42:14.346Z,1018.125
2019-04-22T15:42:28.064Z,1012.5
2019-04-22T15:42:37.397Z,1006.875
2019-04-22T15:42:47.043Z,995.625
2019-04-22T15:42:59.141Z,995.625
2019-04-22T15:43:10.936Z,990
2019-04-22T15:43:22.464Z,990
2019-04-22T15:43:36.645Z,995.625
2019-04-22T15:43:47.733Z,1001.25
2019-04-22T15:43:59.684Z,1012.5
2019-04-22T15:44:12.031Z,1012.5
2019-04-22T15:44:24.041Z,1012.5
2019-04-22T15:44:35.891Z,1012.5
2019-04-22T15:44:48.049Z,1012.5
2019-04-22T15:44:59.927Z,1018.125
2019-04-22T15:45:14.483Z,1012.5
2019-04-22T15:45:25.875Z,1006.875
2019-04-22T15:45:39.060Z,1012.5
2019-04-22T15:45:50.862Z,1006.875
2019-04-22T15:46:03.788Z,1006.875
2019-04-22T15:46:15.882Z,1006.875
2019-04-22T15:46:27.809Z,1006.875
2019-04-22T15:46:39.053Z,1012.5
2019-04-22T15:46:50.961Z,1012.5
2019-04-22T15:47:02.781Z,1023.75
2019-04-22T15:47:15.166Z,1029.375
2019-04-22T15:47:27.022Z,1035
2019-04-22T15:47:39.878Z,1046.25
2019-04-22T15:47:52.341Z,1046.25
2019-04-22T15:48:04.109Z,1040.625
2019-04-22T15:48:16.749Z,1046.25
2019-04-22T15:48:29.156Z,1029.375
2019-04-22T15:48:42.124Z,1012.5
2019-04-22T15:48:53.797Z,1035
2019-04-22T15:49:06.330Z,1012.5
2019-04-22T15:49:18.135Z,1018.125
2019-04-22T15:49:29.728Z,1035
2019-04-22T15:49:42.153Z,1051.875
2019-04-22T15:49:53.888Z,1057.5
2019-04-22T15:50:05.938Z,1091.25
2019-04-22T15:50:17.202Z,1091.25
2019-04-22T15:50:29.055Z,1096.875
2019-04-22T15:50:40.883Z,1091.25
2019-04-22T15:50:54.959Z,1080
2019-04-22T15:51:06.781Z,1068.75
2019-04-22T15:51:18.561Z,1057.5
2019-04-22T15:51:30.818Z,1057.5
2019-04-22T15:51:42.874Z,1051.875
2019-04-22T15:51:57.449Z,1057.5
2019-04-22T15:52:08.042Z,1057.5
2019-04-22T15:52:28.089Z,1063.125
2019-04-22T15:52:40.443Z,1074.375
2019-04-22T15:52:49.967Z,1091.25
2019-04-22T15:53:00.436Z,1102.5
2019-04-22T15:53:11.605Z,1102.5
2019-04-22T15:53:23.511Z,1102.5
2019-04-22T15:53:35.771Z,1096.875
2019-04-22T15:53:47.555Z,1096.875
2019-04-22T15:53:58.958Z,1085.625
2019-04-22T15:54:11.779Z,1080
2019-04-22T15:54:23.713Z,1068.75
2019-04-22T15:54:35.409Z,1057.5
2019-04-22T15:54:50.652Z,1040.625
2019-04-22T15:55:00.738Z,1035
2019-04-22T15:55:11.848Z,1035
2019-04-22T15:55:24.648Z,1046.25
2019-04-22T15:55:36.810Z,1057.5
2019-04-22T15:55:48.263Z,1068.75
2019-04-22T15:56:00.771Z,1074.375
2019-04-22T15:56:12.894Z,1085.625
2019-04-22T15:56:24.735Z,1096.875
2019-04-22T15:56:36.999Z,1102.5
2019-04-22T15:56:48.827Z,1102.5
2019-04-22T15:57:00.262Z,1102.5
2019-04-22T15:57:12.843Z,1102.5
2019-04-22T15:57:24.687Z,1091.25
2019-04-22T15:57:37.621Z,1080
2019-04-22T15:57:49.699Z,1091.25
2019-04-22T15:58:01.840Z,1102.5
2019-04-22T15:58:13.317Z,1108.125
2019-04-22T15:58:25.804Z,1108.125
2019-04-22T15:58:37.448Z,1113.75
2019-04-22T15:58:48.815Z,1119.375
2019-04-22T15:59:01.901Z,1130.625
2019-04-22T15:59:29.785Z,1119.375
2019-04-22T15:59:44.335Z,1108.125
2019-04-22T15:59:57.090Z,1119.375
2019-04-22T16:00:06.357Z,1091.25
2019-04-22T16:00:18.042Z,1119.375
2019-04-22T16:00:29.031Z,1085.625
2019-04-22T16:00:41.370Z,1068.75
2019-04-22T16:00:53.850Z,1068.75
2019-04-22T16:01:05.832Z,1074.375
2019-04-22T16:01:14.736Z,1096.875
2019-04-22T16:01:26.316Z,1051.875
2019-04-22T16:01:37.291Z,1068.75
2019-04-22T16:01:48.519Z,1051.875
2019-04-22T16:02:00.635Z,1051.875
2019-04-22T16:02:13.862Z,1085.625
2019-04-22T16:02:25.634Z,1074.375
2019-04-22T16:02:37.459Z,1068.75
2019-04-22T16:02:49.857Z,1074.375
2019-04-22T16:03:04.788Z,1080
2019-04-22T16:03:14.589Z,1080
2019-04-22T16:03:26.813Z,1091.25
2019-04-22T16:03:38.576Z,1091.25
2019-04-22T16:03:50.328Z,1108.125
2019-04-22T16:04:02.815Z,1119.375
2019-04-22T16:04:14.876Z,1130.625
2019-04-22T16:04:26.565Z,1141.875
2019-04-22T16:04:38.759Z,1158.75
2019-04-22T16:04:50.532Z,1158.75
2019-04-22T16:05:02.629Z,1136.25
2019-04-22T16:05:14.897Z,1125
2019-04-22T16:05:27.988Z,1113.75
2019-04-22T16:05:39.740Z,1108.125
2019-04-22T16:05:52.192Z,1063.125
2019-04-22T16:06:04.118Z,1057.5
2019-04-22T16:06:15.936Z,1063.125
2019-04-22T16:06:28.059Z,1068.75
2019-04-22T16:06:41.090Z,1068.75
2019-04-22T16:06:52.717Z,1068.75
2019-04-22T16:07:05.104Z,1091.25
2019-04-22T16:07:17.199Z,1080
2019-04-22T16:07:29.838Z,1074.375
2019-04-22T16:07:42.227Z,1102.5
2019-04-22T16:07:54.972Z,1091.25
2019-04-22T16:08:06.664Z,1068.75
2019-04-22T16:08:19.121Z,978.75
2019-04-22T16:08:34.026Z,933.75
2019-04-22T16:08:43.945Z,905.625
2019-04-22T16:08:55.971Z,894.375
2019-04-22T16:09:08.970Z,590.625
2019-04-22T16:09:20.634Z,860.625
2019-04-22T16:09:33.235Z,973.125
2019-04-22T16:09:45.699Z,607.5
2019-04-22T16:09:57.510Z,793.125
2019-04-22T16:10:09.973Z,815.625
2019-04-22T16:10:21.931Z,663.75
2019-04-22T16:10:33.758Z,641.25
2019-04-22T16:10:46.117Z,472.5
2019-04-22T16:10:57.874Z,545.625
2019-04-22T16:11:09.840Z,641.25
2019-04-22T16:11:22.195Z,540
2019-04-22T16:11:33.900Z,562.5
2019-04-22T16:11:45.730Z,399.375
2019-04-22T16:12:09.818Z,585
2019-04-22T16:12:16.052Z,354.375
2019-04-22T16:12:30.112Z,455.625
2019-04-22T16:12:44.010Z,331.875
2019-04-22T16:12:57.144Z,337.5
2019-04-22T16:13:09.077Z,247.5
2019-04-22T16:13:20.295Z,393.75
2019-04-22T16:13:29.245Z,405
2019-04-22T16:13:40.065Z,298.125
2019-04-22T16:13:52.457Z,500.625
2019-04-22T16:14:04.251Z,579.375
2019-04-22T16:14:23.772Z,337.5
2019-04-22T16:14:35.014Z,292.5
2019-04-22T16:14:45.305Z,326.25
2019-04-22T16:14:56.921Z,376.875
2019-04-22T16:15:08.791Z,286.875
2019-04-22T16:15:20.410Z,230.625
2019-04-22T16:15:31.411Z,281.25
2019-04-22T16:15:44.494Z,230.625
2019-04-22T16:15:56.461Z,230.625
2019-04-22T16:16:07.821Z,219.375
2019-04-22T16:16:20.670Z,202.5
2019-04-22T16:16:32.505Z,258.75
2019-04-22T16:16:44.270Z,208.125
2019-04-22T16:16:56.668Z,230.625
2019-04-22T16:17:08.606Z,258.75
2019-04-22T16:17:19.706Z,236.25
2019-04-22T16:17:32.747Z,230.625
2019-04-22T16:17:44.637Z,196.875
2019-04-22T16:17:56.112Z,191.25
2019-04-22T16:18:10.919Z,208.125
2019-04-22T16:18:22.371Z,225
2019-04-22T16:18:33.538Z,225
2019-04-22T16:18:46.439Z,208.125
2019-04-22T16:18:58.507Z,225
2019-04-22T16:19:09.961Z,258.75
2019-04-22T16:19:22.931Z,247.5
2019-04-22T16:19:35.060Z,241.875
2019-04-22T16:19:46.677Z,236.25
2019-04-22T16:19:59.381Z,219.375
2019-04-22T16:20:11.127Z,196.875
2019-04-22T16:20:23.276Z,157.5
2019-04-22T16:20:36.313Z,174.375
2019-04-22T16:20:48.171Z,225
2019-04-22T16:21:00.129Z,191.25
2019-04-22T16:21:13.191Z,258.75
2019-04-22T16:21:32.368Z,337.5
2019-04-22T16:21:46.000Z,174.375
2019-04-22T16:21:56.383Z,174.375
2019-04-22T16:22:07.493Z,416.25
2019-04-22T16:22:18.867Z,219.375
2019-04-22T16:22:29.301Z,247.5
2019-04-22T16:22:41.533Z,219.375
2019-04-22T16:22:54.701Z,202.5
2019-04-22T16:23:07.610Z,185.625
2019-04-22T16:23:22.157Z,174.375
2019-04-22T16:23:32.095Z,236.25
2019-04-22T16:23:44.606Z,168.75
2019-04-22T16:23:56.556Z,196.875
2019-04-22T16:24:09.039Z,208.125
2019-04-22T16:24:20.231Z,225
2019-04-22T16:24:32.014Z,230.625
2019-04-22T16:24:43.673Z,236.25
2019-04-22T16:24:56.232Z,270
2019-04-22T16:25:07.297Z,247.5
2019-04-22T16:25:19.367Z,247.5
2019-04-22T16:25:33.340Z,275.625
2019-04-22T16:25:45.161Z,241.875
2019-04-22T16:25:56.558Z,309.375
2019-04-22T16:26:09.397Z,343.125
2019-04-22T16:26:22.055Z,393.75
2019-04-22T16:26:33.957Z,388.125
2019-04-22T16:26:46.571Z,393.75
2019-04-22T16:26:58.178Z,455.625
2019-04-22T16:27:09.402Z,388.125
2019-04-22T16:27:22.690Z,382.5
2019-04-22T16:27:34.369Z,511.875
2019-04-22T16:27:45.801Z,331.875
2019-04-22T16:27:58.535Z,455.625
2019-04-22T16:28:11.077Z,371.25
2019-04-22T16:28:22.228Z,337.5
2019-04-22T16:28:35.234Z,382.5
2019-04-22T16:28:47.257Z,331.875
2019-04-22T16:29:01.054Z,292.5
2019-04-22T16:29:13.472Z,275.625
2019-04-22T16:29:25.228Z,315
2019-04-22T16:29:37.229Z,213.75
2019-04-22T16:29:49.644Z,258.75
2019-04-22T16:30:01.285Z,236.25
2019-04-22T16:30:13.099Z,208.125
2019-04-22T16:30:25.428Z,174.375
2019-04-22T16:30:37.436Z,213.75
2019-04-22T16:30:49.129Z,174.375
2019-04-22T16:31:01.409Z,157.5
2019-04-22T16:31:13.447Z,174.375
2019-04-22T16:31:25.053Z,180
2019-04-22T16:31:37.633Z,185.625
2019-04-22T16:31:49.533Z,258.75
2019-04-22T16:32:01.291Z,163.125
2019-04-22T16:32:13.629Z,219.375
2019-04-22T16:32:25.397Z,219.375
2019-04-22T16:32:39.017Z,264.375
2019-04-22T16:32:51.372Z,315
2019-04-22T16:33:03.440Z,264.375
2019-04-22T16:33:15.225Z,270
2019-04-22T16:33:27.722Z,264.375
2019-04-22T16:33:41.429Z,303.75
2019-04-22T16:33:52.473Z,320.625
2019-04-22T16:34:04.528Z,354.375
2019-04-22T16:34:17.348Z,236.25
2019-04-22T16:34:29.337Z,264.375
2019-04-22T16:34:42.276Z,225
2019-04-22T16:34:52.912Z,236.25
2019-04-22T16:35:06.316Z,236.25
2019-04-22T16:35:18.737Z,213.75
2019-04-22T16:35:30.788Z,208.125
2019-04-22T16:35:42.639Z,208.125
2019-04-22T16:35:55.015Z,247.5
2019-04-22T16:36:07.004Z,202.5
2019-04-22T16:36:18.686Z,185.625
2019-04-22T16:36:31.037Z,180
2019-04-22T16:36:42.858Z,185.625
2019-04-22T16:36:54.631Z,180
2019-04-22T16:37:07.029Z,168.75
2019-04-22T16:37:18.863Z,157.5
2019-04-22T16:37:30.536Z,174.375
2019-04-22T16:37:42.925Z,180
2019-04-22T16:37:54.929Z,196.875
2019-04-22T16:38:06.835Z,174.375
2019-04-22T16:38:19.152Z,191.25
2019-04-22T16:38:30.982Z,202.5
2019-04-22T16:38:42.721Z,196.875
2019-04-22T16:38:55.153Z,202.5
2019-04-22T16:39:06.941Z,196.875
2019-04-22T16:39:18.734Z,180
2019-04-22T16:39:31.028Z,146.25
2019-04-22T16:39:45.259Z,157.5
2019-04-22T16:39:56.618Z,157.5
2019-04-22T16:40:09.286Z,163.125
2019-04-22T16:40:20.809Z,129.375
2019-04-22T16:40:32.576Z,140.625
2019-04-22T16:40:44.878Z,151.875
2019-04-22T16:40:56.713Z,135
2019-04-22T16:41:08.579Z,157.5
2019-04-22T16:41:21.096Z,151.875
2019-04-22T16:41:32.730Z,146.25
2019-04-22T16:41:44.525Z,140.625
2019-04-22T16:41:56.968Z,151.875
2019-04-22T16:42:08.871Z,320.625
2019-04-22T16:42:30.068Z,146.25
2019-04-22T16:42:39.955Z,129.375
2019-04-22T16:42:53.119Z,123.75
2019-04-22T16:43:02.292Z,146.25
2019-04-22T16:43:13.533Z,168.75
2019-04-22T16:43:24.675Z,168.75
2019-04-22T16:43:36.383Z,219.375
2019-04-22T16:43:48.835Z,191.25
2019-04-22T16:44:00.719Z,151.875
2019-04-22T16:44:12.314Z,202.5
2019-04-22T16:44:24.854Z,180
2019-04-22T16:44:36.595Z,151.875
2019-04-22T16:44:49.410Z,157.5
2019-04-22T16:45:01.692Z,163.125
2019-04-22T16:45:13.573Z,163.125
2019-04-22T16:45:25.397Z,151.875
2019-04-22T16:45:37.749Z,157.5
2019-04-22T16:45:49.601Z,185.625
2019-04-22T16:46:01.474Z,163.125
2019-04-22T16:46:13.827Z,180
2019-04-22T16:46:25.802Z,135
2019-04-22T16:46:37.726Z,151.875
2019-04-22T16:46:50.017Z,112.5
2019-04-22T16:47:01.653Z,106.875
2019-04-22T16:47:13.517Z,157.5
2019-04-22T16:47:25.771Z,140.625
2019-04-22T16:47:37.575Z,118.125
2019-04-22T16:47:49.565Z,123.75
2019-04-22T16:48:02.133Z,118.125
2019-04-22T16:48:13.748Z,118.125
2019-04-22T16:48:25.618Z,106.875
2019-04-22T16:48:37.932Z,112.5
2019-04-22T16:48:49.650Z,101.25
2019-04-22T16:49:01.454Z,101.25
2019-04-22T16:49:13.893Z,106.875
2019-04-22T16:49:25.519Z,112.5
2019-04-22T16:49:37.316Z,106.875
2019-04-22T16:49:49.737Z,112.5
2019-04-22T16:50:01.957Z,112.5
2019-04-22T16:50:14.117Z,112.5
2019-04-22T16:50:27.198Z,112.5
2019-04-22T16:50:41.707Z,118.125
2019-04-22T16:50:52.662Z,118.125
2019-04-22T16:51:04.482Z,135
2019-04-22T16:51:16.403Z,118.125
2019-04-22T16:51:29.771Z,118.125
2019-04-22T16:51:42.262Z,163.125
2019-04-22T16:51:54.116Z,168.75
2019-04-22T16:52:05.842Z,140.625
2019-04-22T16:52:18.245Z,230.625
2019-04-22T16:52:30.241Z,196.875
2019-04-22T16:52:41.778Z,151.875
2019-04-22T16:52:54.368Z,174.375
2019-04-22T16:53:06.029Z,180
2019-04-22T16:53:18.973Z,185.625
2019-04-22T16:53:31.448Z,157.5
2019-04-22T16:53:43.178Z,140.625
2019-04-22T16:53:55.677Z,135
2019-04-22T16:54:08.475Z,123.75
2019-04-22T16:54:20.158Z,129.375
2019-04-22T16:54:32.792Z,118.125
2019-04-22T16:54:46.369Z,118.125
2019-04-22T16:54:56.889Z,112.5
2019-04-22T16:55:08.783Z,106.875
2019-04-22T16:55:21.017Z,112.5
2019-04-22T16:55:32.734Z,118.125
2019-04-22T16:55:46.535Z,118.125
2019-04-22T16:55:59.061Z,106.875
2019-04-22T16:56:10.917Z,118.125
2019-04-22T16:56:22.796Z,106.875
2019-04-22T16:56:36.825Z,118.125
2019-04-22T16:56:47.870Z,118.125
2019-04-22T16:56:59.758Z,112.5
2019-04-22T16:57:12.107Z,101.25
2019-04-22T16:57:23.848Z,106.875
2019-04-22T16:57:35.858Z,106.875
2019-04-22T16:57:48.207Z,112.5
2019-04-22T16:58:00.946Z,106.875
2019-04-22T16:58:12.663Z,101.25
2019-04-22T16:58:25.111Z,95.625
2019-04-22T16:58:36.812Z,101.25
2019-04-22T16:58:48.582Z,106.875
2019-04-22T16:59:00.939Z,106.875
2019-04-22T16:59:12.785Z,118.125
2019-04-22T16:59:24.612Z,123.75
2019-04-22T16:59:37.024Z,168.75
2019-04-22T16:59:48.892Z,140.625
2019-04-22T17:00:00.437Z,146.25
2019-04-22T17:00:13.054Z,168.75
2019-04-22T17:00:24.901Z,168.75
2019-04-22T17:00:36.576Z,180
2019-04-22T17:00:49.611Z,151.875
2019-04-22T17:01:00.659Z,168.75
2019-04-22T17:01:12.303Z,191.25
2019-04-22T17:01:24.926Z,202.5
2019-04-22T17:01:36.779Z,196.875
2019-04-22T17:01:48.514Z,202.5
2019-04-22T17:02:00.996Z,208.125
2019-04-22T17:02:12.856Z,219.375
2019-04-22T17:02:24.801Z,247.5
2019-04-22T17:02:36.925Z,247.5
2019-04-22T17:02:50.562Z,236.25
2019-04-22T17:03:02.847Z,253.125
2019-04-22T17:03:14.061Z,230.625
2019-04-22T17:03:26.781Z,208.125
2019-04-22T17:03:38.779Z,213.75
2019-04-22T17:03:50.557Z,185.625
2019-04-22T17:04:02.767Z,191.25
2019-04-22T17:04:14.569Z,180
2019-04-22T17:04:26.222Z,174.375
2019-04-22T17:04:38.638Z,174.375
2019-04-22T17:04:50.822Z,168.75
2019-04-22T17:05:02.795Z,168.75
2019-04-22T17:05:15.818Z,185.625
2019-04-22T17:05:27.481Z,157.5
2019-04-22T17:05:39.381Z,168.75
2019-04-22T17:05:51.764Z,168.75
2019-04-22T17:06:03.547Z,157.5
2019-04-22T17:06:14.921Z,146.25
2019-04-22T17:06:27.617Z,151.875
2019-04-22T17:06:39.815Z,140.625
2019-04-22T17:06:51.660Z,118.125
2019-04-22T17:07:03.679Z,118.125
2019-04-22T17:07:16.109Z,135
2019-04-22T17:07:27.150Z,123.75
2019-04-22T17:07:40.222Z,129.375
2019-04-22T17:07:52.190Z,135
2019-04-22T17:08:03.710Z,118.125
2019-04-22T17:08:16.401Z,118.125
2019-04-22T17:08:28.551Z,140.625
2019-04-22T17:08:40.145Z,135
2019-04-22T17:08:52.847Z,140.625
2019-04-22T17:09:04.968Z,146.25
2019-04-22T17:09:17.673Z,135
2019-04-22T17:09:29.835Z,140.625
2019-04-22T17:09:41.690Z,151.875
2019-04-22T17:09:53.345Z,151.875
2019-04-22T17:10:05.936Z,140.625
2019-04-22T17:10:18.021Z,140.625
2019-04-22T17:10:31.428Z,151.875
2019-04-22T17:10:43.872Z,157.5
2019-04-22T17:10:55.909Z,123.75
2019-04-22T17:11:07.624Z,157.5
2019-04-22T17:11:20.109Z,163.125
2019-04-22T17:11:31.794Z,163.125
2019-04-22T17:11:43.694Z,191.25
2019-04-22T17:11:56.007Z,202.5
2019-04-22T17:12:07.939Z,196.875
2019-04-22T17:12:19.780Z,180
2019-04-22T17:12:40.732Z,112.5
2019-04-22T17:12:53.832Z,168.75
2019-04-22T17:13:03.488Z,140.625
2019-04-22T17:13:15.457Z,90
2019-04-22T17:13:26.571Z,84.375
2019-04-22T17:13:36.526Z,118.125
2019-04-22T17:13:50.062Z,95.625
2019-04-22T17:14:01.306Z,90
2019-04-22T17:14:14.456Z,90
2019-04-22T17:14:33.912Z,90
2019-04-22T17:14:44.089Z,78.75
2019-04-22T17:14:56.703Z,84.375
2019-04-22T17:15:08.190Z,90
2019-04-22T17:15:18.826Z,106.875
2019-04-22T17:15:31.274Z,112.5
2019-04-22T17:15:42.784Z,112.5
2019-04-22T17:15:57.174Z,84.375
2019-04-22T17:16:07.504Z,106.875
2019-04-22T17:16:20.174Z,112.5
2019-04-22T17:16:32.539Z,95.625
2019-04-22T17:16:44.357Z,84.375
2019-04-22T17:16:56.708Z,95.625
2019-04-22T17:17:08.495Z,95.625
2019-04-22T17:17:20.183Z,106.875
2019-04-22T17:17:32.667Z,101.25
2019-04-22T17:17:43.385Z,112.5
2019-04-22T17:17:55.259Z,106.875
2019-04-22T17:18:07.449Z,101.25
2019-04-22T17:18:19.231Z,101.25
2019-04-22T17:18:31.078Z,112.5
2019-04-22T17:18:43.549Z,106.875
2019-04-22T17:18:56.429Z,95.625
2019-04-22T17:19:08.911Z,95.625
2019-04-22T17:19:21.628Z,106.875
2019-04-22T17:19:33.331Z,112.5
2019-04-22T17:19:45.234Z,95.625
2019-04-22T17:19:57.638Z,106.875
2019-04-22T17:20:09.133Z,101.25
2019-04-22T17:20:20.973Z,101.25
2019-04-22T17:20:33.939Z,106.875
2019-04-22T17:20:46.512Z,84.375